Time;durP1;ratioP1;P1;durP2;ratioP2;P2;SDS_P1;SDS_P2;PMS_P1;PMS_P2;Temp;Humidity;BMP_temperature;BMP_pressure;BME280_temperature;BME280_humidity;BME280_pressure;Samples;Min_cycle;Max_cycle;Signal;HPM_P1;HPM_P2
2023/07/25 00:00:05;;;;;;;7.4;4.6;;;;;;;17.97;94.49;;;;;
2023/07/25 00:11:04;;;;;;;7.4;4.6;;;;;;;17.9;94.18;;;;;
2023/07/25 00:21:04;;;;;;;7.4;4.6;;;;;;;17.76;93.66;;;;;
2023/07/25 00:32:04;;;;;;;11.1;5.4;;;;;;;17.88;94.36;;;;;
2023/07/25 00:42:04;;;;;;;11.1;5.4;;;;;;;17.94;94.34;;;;;
2023/07/25 00:53:04;;;;;;;10.7;6.1;;;;;;;17.95;94.26;;;;;
2023/07/25 01:04:04;;;;;;;10.7;6.1;;;;;;;17.96;94.33;;;;;
2023/07/25 01:14:04;;;;;;;10.7;6.1;;;;;;;17.82;93.99;;;;;
2023/07/25 01:24:04;;;;;;;9.7;5.9;;;;;;;17.68;93.69;;;;;
2023/07/25 01:35:04;;;;;;;9.7;5.9;;;;;;;17.74;94.33;;;;;
2023/07/25 01:46:05;;;;;;;9.7;5.9;;;;;;;17.77;94.27;;;;;
2023/07/25 01:57:04;;;;;;;8.8;5.6;;;;;;;17.65;93.91;;;;;
2023/07/25 02:08:04;;;;;;;8.8;5.6;;;;;;;17.37;93.65;;;;;
2023/07/25 02:18:04;;;;;;;8.8;5.6;;;;;;;17.34;93.97;;;;;
2023/07/25 02:29:04;;;;;;;9.6;5.7;;;;;;;17.39;94.16;;;;;
2023/07/25 02:39:04;;;;;;;9.6;5.7;;;;;;;17.37;93.99;;;;;
2023/07/25 02:50:04;;;;;;;9.6;5.7;;;;;;;17.45;93.42;;;;;
2023/07/25 03:00:05;;;;;;;9.9;4.9;;;;;;;17.49;93.87;;;;;
2023/07/25 03:11:04;;;;;;;9.9;4.9;;;;;;;17.45;93.7;;;;;
2023/07/25 03:21:04;;;;;;;9.9;4.9;;;;;;;17.45;93.7;;;;;
2023/07/25 03:32:04;;;;;;;9.1;5.1;;;;;;;17.55;93.67;;;;;
2023/07/25 03:42:04;;;;;;;9.1;5.1;;;;;;;17.54;93.27;;;;;
2023/07/25 03:53:05;;;;;;;10.7;5.3;;;;;;;17.66;93.55;;;;;
2023/07/25 04:03:04;;;;;;;10.7;5.3;;;;;;;17.75;93.64;;;;;
2023/07/25 04:14:04;;;;;;;10.7;5.3;;;;;;;17.85;93.56;;;;;
2023/07/25 04:25:04;;;;;;;11;6.1;;;;;;;17.85;93.36;;;;;
2023/07/25 04:35:04;;;;;;;11;6.1;;;;;;;18.08;94.01;;;;;
2023/07/25 04:45:04;;;;;;;11;6.1;;;;;;;18.36;93.58;;;;;
2023/07/25 04:55:05;;;;;;;10.9;6.7;;;;;;;18.41;93.31;;;;;
2023/07/25 05:06:04;;;;;;;10.9;6.7;;;;;;;18.74;93.38;;;;;
2023/07/25 05:16:05;;;;;;;10.9;6.7;;;;;;;18.98;91.55;;;;;
2023/07/25 05:27:04;;;;;;;13.7;8.2;;;;;;;19.53;87.61;;;;;
2023/07/25 05:37:05;;;;;;;13.7;8.2;;;;;;;19.83;88.2;;;;;
2023/07/25 05:48:04;;;;;;;13.7;8.2;;;;;;;20.31;87.65;;;;;
2023/07/25 05:58:05;;;;;;;10.3;7.2;;;;;;;20.26;84.66;;;;;
2023/07/25 06:09:05;;;;;;;10.3;7.2;;;;;;;20.82;86.89;;;;;
2023/07/25 06:19:05;;;;;;;10.3;7.2;;;;;;;20.81;83.47;;;;;
2023/07/25 06:30:05;;;;;;;11.2;6.5;;;;;;;20.83;81.18;;;;;
2023/07/25 06:41:05;;;;;;;11.2;6.5;;;;;;;21.16;81.23;;;;;
2023/07/25 06:52:05;;;;;;;11.5;6.6;;;;;;;21.67;79.01;;;;;
2023/07/25 07:02:04;;;;;;;11.5;6.6;;;;;;;22.32;76.63;;;;;
2023/07/25 07:13:07;;;;;;;11.5;6.6;;;;;;;22.64;73.82;;;;;
2023/07/25 07:23:05;;;;;;;8.2;5.6;;;;;;;22.84;74.44;;;;;
2023/07/25 07:33:05;;;;;;;8.2;5.6;;;;;;;23.31;72.56;;;;;
2023/07/25 07:44:05;;;;;;;8.2;5.6;;;;;;;24.06;70.32;;;;;
2023/07/25 07:55:05;;;;;;;11.5;6.3;;;;;;;24.33;67.61;;;;;
2023/07/25 08:06:05;;;;;;;11.5;6.3;;;;;;;24.24;64.48;;;;;
2023/07/25 08:16:05;;;;;;;11.5;6.3;;;;;;;24.85;65.94;;;;;
2023/07/25 08:27:05;;;;;;;8.1;5.2;;;;;;;25.26;61.1;;;;;
2023/07/25 08:37:05;;;;;;;8.1;5.2;;;;;;;25.58;60.47;;;;;
2023/07/25 08:47:05;;;;;;;8.1;5.2;;;;;;;25.66;59.59;;;;;
2023/07/25 08:57:05;;;;;;;9.8;4.7;;;;;;;26.16;59.54;;;;;
2023/07/25 09:08:05;;;;;;;9.8;4.7;;;;;;;26.32;57.96;;;;;
2023/07/25 09:19:05;;;;;;;9.8;4.7;;;;;;;26.15;56.75;;;;;
2023/07/25 09:29:05;;;;;;;9.1;4.6;;;;;;;26.5;56.29;;;;;
2023/07/25 09:39:05;;;;;;;9.1;4.6;;;;;;;26.27;57.21;;;;;
2023/07/25 09:49:05;;;;;;;9.1;4.6;;;;;;;26.8;58.35;;;;;
2023/07/25 09:59:05;;;;;;;7.6;5.3;;;;;;;26.94;55.83;;;;;
2023/07/25 10:09:06;;;;;;;7.6;5.3;;;;;;;27.34;56.44;;;;;
2023/07/25 10:20:05;;;;;;;7.6;5.3;;;;;;;27.09;55.32;;;;;
2023/07/25 10:30:05;;;;;;;7.3;4.5;;;;;;;27.49;54.08;;;;;
2023/07/25 10:41:05;;;;;;;7.3;4.5;;;;;;;27.39;55.11;;;;;
2023/07/25 10:52:05;;;;;;;7.8;4.8;;;;;;;27.42;54.37;;;;;
2023/07/25 11:03:05;;;;;;;7.8;4.8;;;;;;;27.8;54.15;;;;;
2023/07/25 11:14:05;;;;;;;7.8;4.8;;;;;;;27.73;53.12;;;;;
2023/07/25 11:24:05;;;;;;;6.9;4;;;;;;;27.53;54.87;;;;;
2023/07/25 11:34:05;;;;;;;6.9;4;;;;;;;27.92;57.2;;;;;
2023/07/25 11:45:05;;;;;;;6.9;4;;;;;;;27.26;53.73;;;;;
2023/07/25 11:56:05;;;;;;;7.8;4.2;;;;;;;26.57;57.59;;;;;
2023/07/25 12:07:05;;;;;;;7.8;4.2;;;;;;;26.2;60;;;;;
2023/07/25 12:17:05;;;;;;;7.8;4.2;;;;;;;25.92;58.56;;;;;
2023/07/25 12:27:05;;;;;;;7.8;3.4;;;;;;;25.78;57.49;;;;;
2023/07/25 12:38:05;;;;;;;7.8;3.4;;;;;;;25.92;58.28;;;;;
2023/07/25 12:49:05;;;;;;;7.8;3.4;;;;;;;24.7;62.22;;;;;
2023/07/25 12:59:05;;;;;;;8.2;3.6;;;;;;;24.05;65.51;;;;;
2023/07/25 13:09:05;;;;;;;8.2;3.6;;;;;;;23.36;66.76;;;;;
2023/07/25 13:19:05;;;;;;;8.2;3.6;;;;;;;23.05;67.25;;;;;
2023/07/25 13:30:05;;;;;;;8.2;3.8;;;;;;;22.29;68.59;;;;;
2023/07/25 13:41:05;;;;;;;8.2;3.8;;;;;;;21.59;73.7;;;;;
2023/07/25 13:51:05;;;;;;;8.2;3.8;;;;;;;21.03;75.09;;;;;
2023/07/25 14:01:05;;;;;;;7.8;4;;;;;;;20.62;76.54;;;;;
2023/07/25 14:11:05;;;;;;;7.8;4;;;;;;;20.44;77.91;;;;;
2023/07/25 14:22:05;;;;;;;5;3.1;;;;;;;20.21;79.18;;;;;
2023/07/25 14:32:05;;;;;;;5;3.1;;;;;;;19.47;82.44;;;;;
2023/07/25 14:43:05;;;;;;;5;3.1;;;;;;;19.03;83.75;;;;;
2023/07/25 14:53:05;;;;;;;7.7;4.1;;;;;;;19.02;84.39;;;;;
2023/07/25 15:04:05;;;;;;;7.7;4.1;;;;;;;19.07;85.04;;;;;
2023/07/25 15:14:05;;;;;;;7.7;4.1;;;;;;;19.29;83.65;;;;;
2023/07/25 15:24:05;;;;;;;6.9;4.2;;;;;;;19.78;82.68;;;;;
2023/07/25 15:35:06;;;;;;;6.9;4.2;;;;;;;19.82;82.08;;;;;
2023/07/25 15:46:05;;;;;;;6.9;4.2;;;;;;;19.51;82.31;;;;;
2023/07/25 15:56:05;;;;;;;6.3;3.7;;;;;;;18.97;83.82;;;;;
2023/07/25 16:06:05;;;;;;;6.3;3.7;;;;;;;18.82;83.63;;;;;
2023/07/25 16:17:05;;;;;;;6.3;3.7;;;;;;;18.76;84.28;;;;;
2023/07/25 16:27:05;;;;;;;9;4.7;;;;;;;18.86;84.3;;;;;
2023/07/25 16:37:05;;;;;;;9;4.7;;;;;;;18.75;84.55;;;;;
2023/07/25 16:47:05;;;;;;;9;4.7;;;;;;;18.97;84.01;;;;;
2023/07/25 16:58:05;;;;;;;7.1;4.6;;;;;;;18.91;84.26;;;;;
2023/07/25 17:09:05;;;;;;;7.1;4.6;;;;;;;18.59;85.77;;;;;
2023/07/25 17:19:05;;;;;;;7.1;4.6;;;;;;;18.69;85.67;;;;;
2023/07/25 17:29:05;;;;;;;7.2;3.8;;;;;;;18.96;84.84;;;;;
2023/07/25 17:39:05;;;;;;;7.2;3.8;;;;;;;19.09;84.92;;;;;
2023/07/25 17:50:05;;;;;;;7.2;3.8;;;;;;;19.1;83.82;;;;;
2023/07/25 18:00:05;;;;;;;5.8;3.2;;;;;;;18.72;85.32;;;;;
2023/07/25 18:11:05;;;;;;;5.8;3.2;;;;;;;18.55;86.15;;;;;
2023/07/25 18:21:05;;;;;;;5.8;3.2;;;;;;;18.14;87.87;;;;;
2023/07/25 18:32:05;;;;;;;6.8;3.7;;;;;;;18.16;87.85;;;;;
2023/07/25 18:42:05;;;;;;;6.8;3.7;;;;;;;17.95;88.17;;;;;
2023/07/25 18:52:05;;;;;;;8.1;4.8;;;;;;;17.9;88.44;;;;;
2023/07/25 19:03:05;;;;;;;8.1;4.8;;;;;;;17.77;88.95;;;;;
2023/07/25 19:13:05;;;;;;;8.1;4.8;;;;;;;17.58;89;;;;;
2023/07/25 19:23:05;;;;;;;7.9;4.4;;;;;;;17.75;87.79;;;;;
2023/07/25 19:34:05;;;;;;;7.9;4.4;;;;;;;17.64;87.03;;;;;
2023/07/25 19:45:05;;;;;;;7.9;4.4;;;;;;;17.45;86.49;;;;;
2023/07/25 19:55:05;;;;;;;6.5;4;;;;;;;17.19;87.21;;;;;
2023/07/25 20:05:05;;;;;;;6.5;4;;;;;;;16.98;86.78;;;;;
2023/07/25 20:16:05;;;;;;;6.5;4;;;;;;;16.73;86.73;;;;;
2023/07/25 20:26:05;;;;;;;7;4.5;;;;;;;16.52;87.23;;;;;
2023/07/25 20:36:05;;;;;;;7;4.5;;;;;;;16.31;87.32;;;;;
2023/07/25 20:47:05;;;;;;;7;4.5;;;;;;;16.12;87.83;;;;;
2023/07/25 20:57:05;;;;;;;9.5;4.5;;;;;;;15.92;88.02;;;;;
2023/07/25 21:07:05;;;;;;;9.5;4.5;;;;;;;15.82;89.32;;;;;
2023/07/25 21:17:05;;;;;;;9.5;4.5;;;;;;;15.72;88.93;;;;;
2023/07/25 21:28:05;;;;;;;9.7;4.8;;;;;;;15.59;88.79;;;;;
2023/07/25 21:38:05;;;;;;;9.7;4.8;;;;;;;15.44;89.13;;;;;
2023/07/25 21:49:05;;;;;;;9.7;4.8;;;;;;;15.27;89.34;;;;;
2023/07/25 22:00:06;;;;;;;9.6;4.9;;;;;;;15.31;90.13;;;;;
2023/07/25 22:11:05;;;;;;;9.6;4.9;;;;;;;15.26;89.82;;;;;
2023/07/25 22:21:05;;;;;;;9.6;4.9;;;;;;;15.18;89.82;;;;;
2023/07/25 22:32:05;;;;;;;8.6;5;;;;;;;15.17;90.21;;;;;
2023/07/25 22:42:05;;;;;;;8.6;5;;;;;;;15.07;91.39;;;;;
2023/07/25 22:53:05;;;;;;;6.9;4.1;;;;;;;15;90.82;;;;;
2023/07/25 23:04:05;;;;;;;6.9;4.1;;;;;;;14.94;92.31;;;;;
2023/07/25 23:14:05;;;;;;;6.9;4.1;;;;;;;14.96;92.58;;;;;
2023/07/25 23:25:05;;;;;;;6.8;4.2;;;;;;;15.05;92.89;;;;;
2023/07/25 23:35:05;;;;;;;6.8;4.2;;;;;;;15.27;92.69;;;;;
2023/07/25 23:45:05;;;;;;;6.8;4.2;;;;;;;15.5;92.01;;;;;
2023/07/25 23:56:05;;;;;;;9;4.1;;;;;;;15.54;91.15;;;;;
